sensor_id;sensor_type;location;lat;lon;timestamp;temperature;humidity
16505;HTU21D;8365;51.030;4.696;2023-08-07T00:00:05;12.95;118.99
16505;HTU21D;8365;51.030;4.696;2023-08-07T00:02:39;12.97;118.99
16505;HTU21D;8365;51.030;4.696;2023-08-07T00:05:09;12.87;118.99
16505;HTU21D;8365;51.030;4.696;2023-08-07T00:07:40;12.91;118.99
16505;HTU21D;8365;51.030;4.696;2023-08-07T00:10:11;12.87;118.99
16505;HTU21D;8365;51.030;4.696;2023-08-07T00:12:41;12.69;118.99
16505;HTU21D;8365;51.030;4.696;2023-08-07T00:15:13;12.71;118.99
16505;HTU21D;8365;51.030;4.696;2023-08-07T00:17:43;12.66;118.99
16505;HTU21D;8365;51.030;4.696;2023-08-07T00:20:14;12.65;118.99
16505;HTU21D;8365;51.030;4.696;2023-08-07T00:22:44;12.61;118.99
16505;HTU21D;8365;51.030;4.696;2023-08-07T00:25:15;12.51;118.99
16505;HTU21D;8365;51.030;4.696;2023-08-07T00:27:45;12.48;118.99
16505;HTU21D;8365;51.030;4.696;2023-08-07T00:30:16;12.48;118.99
16505;HTU21D;8365;51.030;4.696;2023-08-07T00:32:46;12.49;118.99
16505;HTU21D;8365;51.030;4.696;2023-08-07T00:35:17;12.46;118.99
16505;HTU21D;8365;51.030;4.696;2023-08-07T00:37:49;12.51;118.99
16505;HTU21D;8365;51.030;4.696;2023-08-07T00:40:20;12.50;118.99
16505;HTU21D;8365;51.030;4.696;2023-08-07T00:42:50;12.57;118.99
16505;HTU21D;8365;51.030;4.696;2023-08-07T00:45:20;12.48;118.99
16505;HTU21D;8365;51.030;4.696;2023-08-07T00:47:51;12.47;118.99
16505;HTU21D;8365;51.030;4.696;2023-08-07T00:50:24;12.46;118.99
16505;HTU21D;8365;51.030;4.696;2023-08-07T00:52:54;12.50;118.99
16505;HTU21D;8365;51.030;4.696;2023-08-07T00:55:28;12.60;118.99
16505;HTU21D;8365;51.030;4.696;2023-08-07T00:57:59;12.61;118.99
16505;HTU21D;8365;51.030;4.696;2023-08-07T01:00:30;12.56;118.99
16505;HTU21D;8365;51.030;4.696;2023-08-07T01:03:01;12.62;118.99
16505;HTU21D;8365;51.030;4.696;2023-08-07T01:05:32;12.61;118.99
16505;HTU21D;8365;51.030;4.696;2023-08-07T01:08:02;12.67;118.99
16505;HTU21D;8365;51.030;4.696;2023-08-07T01:13:40;12.71;118.99
16505;HTU21D;8365;51.030;4.696;2023-08-07T01:16:23;12.71;118.99
16505;HTU21D;8365;51.030;4.696;2023-08-07T01:18:57;12.64;118.99
16505;HTU21D;8365;51.030;4.696;2023-08-07T01:21:28;12.60;118.99
16505;HTU21D;8365;51.030;4.696;2023-08-07T01:23:59;12.55;118.99
16505;HTU21D;8365;51.030;4.696;2023-08-07T01:26:29;12.63;118.99
16505;HTU21D;8365;51.030;4.696;2023-08-07T01:29:19;12.56;118.99
16505;HTU21D;8365;51.030;4.696;2023-08-07T01:31:53;12.55;118.99
16505;HTU21D;8365;51.030;4.696;2023-08-07T01:34:27;12.50;118.99
16505;HTU21D;8365;51.030;4.696;2023-08-07T01:36:59;12.50;118.99
16505;HTU21D;8365;51.030;4.696;2023-08-07T01:39:31;12.46;118.99
16505;HTU21D;8365;51.030;4.696;2023-08-07T01:42:02;12.49;118.99
16505;HTU21D;8365;51.030;4.696;2023-08-07T01:44:35;12.40;118.99
16505;HTU21D;8365;51.030;4.696;2023-08-07T01:47:06;12.41;118.99
16505;HTU21D;8365;51.030;4.696;2023-08-07T01:49:37;12.46;118.99
16505;HTU21D;8365;51.030;4.696;2023-08-07T01:52:08;12.40;118.99
16505;HTU21D;8365;51.030;4.696;2023-08-07T01:54:39;12.33;118.99
16505;HTU21D;8365;51.030;4.696;2023-08-07T01:57:09;12.35;118.99
16505;HTU21D;8365;51.030;4.696;2023-08-07T01:59:40;12.33;118.99
16505;HTU21D;8365;51.030;4.696;2023-08-07T02:02:10;12.43;118.99
16505;HTU21D;8365;51.030;4.696;2023-08-07T02:04:41;12.44;118.99
16505;HTU21D;8365;51.030;4.696;2023-08-07T02:07:11;12.37;118.99
16505;HTU21D;8365;51.030;4.696;2023-08-07T02:09:42;12.38;118.99
16505;HTU21D;8365;51.030;4.696;2023-08-07T02:12:12;12.42;118.99
16505;HTU21D;8365;51.030;4.696;2023-08-07T02:14:43;12.41;118.99
16505;HTU21D;8365;51.030;4.696;2023-08-07T02:17:13;12.38;118.99
16505;HTU21D;8365;51.030;4.696;2023-08-07T02:19:44;12.40;118.99
16505;HTU21D;8365;51.030;4.696;2023-08-07T02:22:14;12.37;118.99
16505;HTU21D;8365;51.030;4.696;2023-08-07T02:24:45;12.26;118.99
16505;HTU21D;8365;51.030;4.696;2023-08-07T02:27:15;12.20;118.99
16505;HTU21D;8365;51.030;4.696;2023-08-07T02:29:46;12.19;118.99
16505;HTU21D;8365;51.030;4.696;2023-08-07T02:32:16;12.14;118.99
16505;HTU21D;8365;51.030;4.696;2023-08-07T02:34:47;12.11;118.99
16505;HTU21D;8365;51.030;4.696;2023-08-07T02:37:17;12.04;118.99
16505;HTU21D;8365;51.030;4.696;2023-08-07T02:39:49;12.05;118.99
16505;HTU21D;8365;51.030;4.696;2023-08-07T02:42:19;12.04;118.99
16505;HTU21D;8365;51.030;4.696;2023-08-07T02:44:50;11.98;118.99
16505;HTU21D;8365;51.030;4.696;2023-08-07T02:47:20;12.05;118.99
16505;HTU21D;8365;51.030;4.696;2023-08-07T02:49:51;11.98;118.99
16505;HTU21D;8365;51.030;4.696;2023-08-07T02:52:21;11.97;118.99
16505;HTU21D;8365;51.030;4.696;2023-08-07T02:54:52;12.01;118.99
16505;HTU21D;8365;51.030;4.696;2023-08-07T02:57:22;12.06;118.99
16505;HTU21D;8365;51.030;4.696;2023-08-07T02:59:53;12.11;118.99
16505;HTU21D;8365;51.030;4.696;2023-08-07T03:02:25;11.99;118.99
16505;HTU21D;8365;51.030;4.696;2023-08-07T03:04:56;11.96;118.99
16505;HTU21D;8365;51.030;4.696;2023-08-07T03:07:26;11.97;118.99
16505;HTU21D;8365;51.030;4.696;2023-08-07T03:09:57;11.97;118.99
16505;HTU21D;8365;51.030;4.696;2023-08-07T03:12:27;12.02;118.99
16505;HTU21D;8365;51.030;4.696;2023-08-07T03:14:58;11.91;118.99
16505;HTU21D;8365;51.030;4.696;2023-08-07T03:17:28;11.90;118.99
16505;HTU21D;8365;51.030;4.696;2023-08-07T03:19:58;11.94;118.99
16505;HTU21D;8365;51.030;4.696;2023-08-07T03:22:29;12.03;118.99
16505;HTU21D;8365;51.030;4.696;2023-08-07T03:24:59;12.11;118.99
16505;HTU21D;8365;51.030;4.696;2023-08-07T03:27:30;12.14;118.99
16505;HTU21D;8365;51.030;4.696;2023-08-07T03:30:00;12.13;118.99
16505;HTU21D;8365;51.030;4.696;2023-08-07T03:32:31;12.18;118.99
16505;HTU21D;8365;51.030;4.696;2023-08-07T03:35:01;12.17;118.99
16505;HTU21D;8365;51.030;4.696;2023-08-07T03:37:32;12.27;118.99
16505;HTU21D;8365;51.030;4.696;2023-08-07T03:40:05;12.31;118.99
16505;HTU21D;8365;51.030;4.696;2023-08-07T03:42:36;12.37;118.99
16505;HTU21D;8365;51.030;4.696;2023-08-07T03:45:07;12.50;118.99
16505;HTU21D;8365;51.030;4.696;2023-08-07T03:47:37;12.57;118.99
16505;HTU21D;8365;51.030;4.696;2023-08-07T03:50:08;12.53;118.99
16505;HTU21D;8365;51.030;4.696;2023-08-07T03:52:38;12.57;118.99
16505;HTU21D;8365;51.030;4.696;2023-08-07T03:55:09;12.62;118.99
16505;HTU21D;8365;51.030;4.696;2023-08-07T03:57:39;12.71;118.99
16505;HTU21D;8365;51.030;4.696;2023-08-07T04:00:10;12.76;118.99
16505;HTU21D;8365;51.030;4.696;2023-08-07T04:02:41;12.84;118.99
16505;HTU21D;8365;51.030;4.696;2023-08-07T04:05:12;12.93;118.99
16505;HTU21D;8365;51.030;4.696;2023-08-07T04:07:42;12.93;118.99
16505;HTU21D;8365;51.030;4.696;2023-08-07T04:10:15;13.08;118.99
16505;HTU21D;8365;51.030;4.696;2023-08-07T04:12:46;13.04;118.99
16505;HTU21D;8365;51.030;4.696;2023-08-07T04:15:16;13.07;118.99
16505;HTU21D;8365;51.030;4.696;2023-08-07T04:17:47;12.99;118.99
16505;HTU21D;8365;51.030;4.696;2023-08-07T04:20:19;12.99;118.99
16505;HTU21D;8365;51.030;4.696;2023-08-07T04:22:50;13.04;118.99
16505;HTU21D;8365;51.030;4.696;2023-08-07T04:25:23;13.07;118.99
16505;HTU21D;8365;51.030;4.696;2023-08-07T04:27:53;13.04;118.99
16505;HTU21D;8365;51.030;4.696;2023-08-07T04:30:24;13.07;118.99
16505;HTU21D;8365;51.030;4.696;2023-08-07T04:32:54;13.07;118.99
16505;HTU21D;8365;51.030;4.696;2023-08-07T04:35:27;13.03;118.99
16505;HTU21D;8365;51.030;4.696;2023-08-07T04:37:57;13.03;118.99
16505;HTU21D;8365;51.030;4.696;2023-08-07T04:40:28;13.10;118.99
16505;HTU21D;8365;51.030;4.696;2023-08-07T04:42:59;13.09;118.99
16505;HTU21D;8365;51.030;4.696;2023-08-07T04:45:30;13.14;118.99
16505;HTU21D;8365;51.030;4.696;2023-08-07T04:48:00;13.14;118.99
16505;HTU21D;8365;51.030;4.696;2023-08-07T04:50:30;13.14;118.99
16505;HTU21D;8365;51.030;4.696;2023-08-07T04:53:01;13.09;118.99
16505;HTU21D;8365;51.030;4.696;2023-08-07T04:55:32;13.19;118.99
16505;HTU21D;8365;51.030;4.696;2023-08-07T04:58:02;13.12;118.99
16505;HTU21D;8365;51.030;4.696;2023-08-07T05:00:33;13.09;118.99
16505;HTU21D;8365;51.030;4.696;2023-08-07T05:03:05;13.11;118.99
16505;HTU21D;8365;51.030;4.696;2023-08-07T05:05:36;13.03;118.99
16505;HTU21D;8365;51.030;4.696;2023-08-07T05:08:06;13.01;118.99
16505;HTU21D;8365;51.030;4.696;2023-08-07T05:10:37;13.01;118.99
16505;HTU21D;8365;51.030;4.696;2023-08-07T05:13:07;12.97;118.99
16505;HTU21D;8365;51.030;4.696;2023-08-07T05:15:38;12.94;118.99
16505;HTU21D;8365;51.030;4.696;2023-08-07T05:18:08;12.88;118.99
16505;HTU21D;8365;51.030;4.696;2023-08-07T05:20:39;12.87;118.99
16505;HTU21D;8365;51.030;4.696;2023-08-07T05:23:09;12.76;118.99
16505;HTU21D;8365;51.030;4.696;2023-08-07T05:25:41;12.70;118.99
16505;HTU21D;8365;51.030;4.696;2023-08-07T05:28:11;12.77;118.99
16505;HTU21D;8365;51.030;4.696;2023-08-07T05:30:42;12.80;118.99
16505;HTU21D;8365;51.030;4.696;2023-08-07T05:33:12;12.81;118.99
16505;HTU21D;8365;51.030;4.696;2023-08-07T05:35:45;12.93;118.99
16505;HTU21D;8365;51.030;4.696;2023-08-07T05:38:18;12.86;118.99
16505;HTU21D;8365;51.030;4.696;2023-08-07T05:40:49;12.92;118.99
16505;HTU21D;8365;51.030;4.696;2023-08-07T05:43:19;12.85;118.99
16505;HTU21D;8365;51.030;4.696;2023-08-07T05:45:49;12.93;118.99
16505;HTU21D;8365;51.030;4.696;2023-08-07T05:48:21;12.85;118.99
16505;HTU21D;8365;51.030;4.696;2023-08-07T05:50:51;12.92;118.99
16505;HTU21D;8365;51.030;4.696;2023-08-07T05:53:23;12.90;118.99
16505;HTU21D;8365;51.030;4.696;2023-08-07T05:55:53;12.97;118.99
16505;HTU21D;8365;51.030;4.696;2023-08-07T05:58:23;13.05;118.99
16505;HTU21D;8365;51.030;4.696;2023-08-07T06:00:54;13.20;118.99
16505;HTU21D;8365;51.030;4.696;2023-08-07T06:03:25;13.32;118.99
16505;HTU21D;8365;51.030;4.696;2023-08-07T06:05:55;13.55;118.99
16505;HTU21D;8365;51.030;4.696;2023-08-07T06:08:25;13.52;118.99
16505;HTU21D;8365;51.030;4.696;2023-08-07T06:10:56;13.62;118.99
16505;HTU21D;8365;51.030;4.696;2023-08-07T06:13:26;13.76;118.99
16505;HTU21D;8365;51.030;4.696;2023-08-07T06:15:57;13.85;118.99
16505;HTU21D;8365;51.030;4.696;2023-08-07T06:18:28;13.89;118.99
16505;HTU21D;8365;51.030;4.696;2023-08-07T06:21:00;13.97;118.99
16505;HTU21D;8365;51.030;4.696;2023-08-07T06:23:30;14.01;118.99
16505;HTU21D;8365;51.030;4.696;2023-08-07T06:26:01;14.06;118.28
16505;HTU21D;8365;51.030;4.696;2023-08-07T06:28:35;14.18;118.99
16505;HTU21D;8365;51.030;4.696;2023-08-07T06:31:07;14.21;118.99
16505;HTU21D;8365;51.030;4.696;2023-08-07T06:33:38;14.34;118.99
16505;HTU21D;8365;51.030;4.696;2023-08-07T06:36:08;14.45;118.99
16505;HTU21D;8365;51.030;4.696;2023-08-07T06:38:39;14.52;118.09
16505;HTU21D;8365;51.030;4.696;2023-08-07T06:41:12;14.56;117.63
16505;HTU21D;8365;51.030;4.696;2023-08-07T06:43:43;14.62;118.90
16505;HTU21D;8365;51.030;4.696;2023-08-07T06:46:13;14.72;118.14
16505;HTU21D;8365;51.030;4.696;2023-08-07T06:48:44;14.81;117.39
16505;HTU21D;8365;51.030;4.696;2023-08-07T06:51:14;14.98;117.34
16505;HTU21D;8365;51.030;4.696;2023-08-07T06:53:45;14.92;116.44
16505;HTU21D;8365;51.030;4.696;2023-08-07T06:56:16;15.06;116.68
16505;HTU21D;8365;51.030;4.696;2023-08-07T06:58:46;15.07;116.54
16505;HTU21D;8365;51.030;4.696;2023-08-07T07:01:16;15.13;115.38
16505;HTU21D;8365;51.030;4.696;2023-08-07T07:03:47;15.13;116.64
16505;HTU21D;8365;51.030;4.696;2023-08-07T07:06:22;15.31;116.01
16505;HTU21D;8365;51.030;4.696;2023-08-07T07:08:55;15.36;116.29
16505;HTU21D;8365;51.030;4.696;2023-08-07T07:11:26;15.49;114.85
16505;HTU21D;8365;51.030;4.696;2023-08-07T07:13:56;15.47;115.07
16505;HTU21D;8365;51.030;4.696;2023-08-07T07:16:27;15.67;115.69
16505;HTU21D;8365;51.030;4.696;2023-08-07T07:18:59;15.59;112.90
16505;HTU21D;8365;51.030;4.696;2023-08-07T07:21:30;15.71;113.43
16505;HTU21D;8365;51.030;4.696;2023-08-07T07:24:01;15.74;113.74
16505;HTU21D;8365;51.030;4.696;2023-08-07T07:26:32;15.87;111.46
16505;HTU21D;8365;51.030;4.696;2023-08-07T07:29:02;16.05;111.59
16505;HTU21D;8365;51.030;4.696;2023-08-07T07:31:33;16.29;112.63
16505;HTU21D;8365;51.030;4.696;2023-08-07T07:34:03;16.37;109.79
16505;HTU21D;8365;51.030;4.696;2023-08-07T07:36:37;16.30;110.03
16505;HTU21D;8365;51.030;4.696;2023-08-07T07:39:07;16.39;110.83
16505;HTU21D;8365;51.030;4.696;2023-08-07T07:41:38;16.43;110.67
16505;HTU21D;8365;51.030;4.696;2023-08-07T07:44:08;16.29;111.43
16505;HTU21D;8365;51.030;4.696;2023-08-07T07:46:39;16.35;111.00
16505;HTU21D;8365;51.030;4.696;2023-08-07T07:49:09;16.36;112.24
16505;HTU21D;8365;51.030;4.696;2023-08-07T07:51:40;16.48;110.78
16505;HTU21D;8365;51.030;4.696;2023-08-07T07:54:10;16.70;111.12
16505;HTU21D;8365;51.030;4.696;2023-08-07T07:56:43;16.76;108.62
16505;HTU21D;8365;51.030;4.696;2023-08-07T07:59:14;16.91;108.24
16505;HTU21D;8365;51.030;4.696;2023-08-07T08:01:44;17.16;108.24
16505;HTU21D;8365;51.030;4.696;2023-08-07T08:04:15;17.29;105.88
16505;HTU21D;8365;51.030;4.696;2023-08-07T08:06:45;17.07;106.43
16505;HTU21D;8365;51.030;4.696;2023-08-07T08:09:18;17.05;106.31
16505;HTU21D;8365;51.030;4.696;2023-08-07T08:11:48;17.24;102.25
16505;HTU21D;8365;51.030;4.696;2023-08-07T08:14:19;17.60;105.97
16505;HTU21D;8365;51.030;4.696;2023-08-07T08:16:49;17.66;101.94
16505;HTU21D;8365;51.030;4.696;2023-08-07T08:19:20;17.77;104.65
16505;HTU21D;8365;51.030;4.696;2023-08-07T08:21:53;17.84;103.88
16505;HTU21D;8365;51.030;4.696;2023-08-07T08:24:27;17.53;103.35
16505;HTU21D;8365;51.030;4.696;2023-08-07T08:26:57;17.23;106.89
16505;HTU21D;8365;51.030;4.696;2023-08-07T08:29:28;17.15;103.11
16505;HTU21D;8365;51.030;4.696;2023-08-07T08:31:59;16.99;103.55
16505;HTU21D;8365;51.030;4.696;2023-08-07T08:34:29;17.20;104.39
16505;HTU21D;8365;51.030;4.696;2023-08-07T08:37:00;17.30;103.82
16505;HTU21D;8365;51.030;4.696;2023-08-07T08:39:30;17.58;102.10
16505;HTU21D;8365;51.030;4.696;2023-08-07T08:42:03;18.06;102.39
16505;HTU21D;8365;51.030;4.696;2023-08-07T08:44:36;18.11;99.20
16505;HTU21D;8365;51.030;4.696;2023-08-07T08:47:09;17.95;98.68
16505;HTU21D;8365;51.030;4.696;2023-08-07T08:49:46;18.04;99.70
16505;HTU21D;8365;51.030;4.696;2023-08-07T09:55:01;20.81;82.00
16505;HTU21D;8365;51.030;4.696;2023-08-07T09:57:36;20.44;82.36
16505;HTU21D;8365;51.030;4.696;2023-08-07T10:00:08;21.45;78.11
16505;HTU21D;8365;51.030;4.696;2023-08-07T10:02:42;21.59;74.70
16505;HTU21D;8365;51.030;4.696;2023-08-07T10:05:13;22.12;71.81
16505;HTU21D;8365;51.030;4.696;2023-08-07T10:07:44;22.03;72.62
16505;HTU21D;8365;51.030;4.696;2023-08-07T10:10:14;22.31;72.43
16505;HTU21D;8365;51.030;4.696;2023-08-07T10:12:45;22.31;68.51
16505;HTU21D;8365;51.030;4.696;2023-08-07T10:15:18;22.84;67.78
16505;HTU21D;8365;51.030;4.696;2023-08-07T10:17:49;22.55;66.94
16505;HTU21D;8365;51.030;4.696;2023-08-07T10:20:20;23.41;66.22
16505;HTU21D;8365;51.030;4.696;2023-08-07T10:22:52;23.26;64.52
16505;HTU21D;8365;51.030;4.696;2023-08-07T10:25:23;22.86;66.10
16505;HTU21D;8365;51.030;4.696;2023-08-07T10:27:55;22.86;66.49
16505;HTU21D;8365;51.030;4.696;2023-08-07T10:30:27;22.88;63.70
16505;HTU21D;8365;51.030;4.696;2023-08-07T10:32:58;23.24;64.82
16505;HTU21D;8365;51.030;4.696;2023-08-07T10:35:30;23.18;64.37
16505;HTU21D;8365;51.030;4.696;2023-08-07T10:38:07;22.56;64.96
16505;HTU21D;8365;51.030;4.696;2023-08-07T10:41:02;23.36;63.96
16505;HTU21D;8365;51.030;4.696;2023-08-07T10:43:37;23.61;60.60
16505;HTU21D;8365;51.030;4.696;2023-08-07T10:46:14;23.75;60.97
16505;HTU21D;8365;51.030;4.696;2023-08-07T10:48:46;23.09;63.19
16505;HTU21D;8365;51.030;4.696;2023-08-07T10:51:19;22.54;64.98
16505;HTU21D;8365;51.030;4.696;2023-08-07T10:53:50;21.69;65.98
16505;HTU21D;8365;51.030;4.696;2023-08-07T10:56:34;22.53;64.18
16505;HTU21D;8365;51.030;4.696;2023-08-07T10:59:11;23.46;61.09
16505;HTU21D;8365;51.030;4.696;2023-08-07T11:01:42;22.75;66.30
16505;HTU21D;8365;51.030;4.696;2023-08-07T11:04:14;22.68;67.72
16505;HTU21D;8365;51.030;4.696;2023-08-07T11:06:48;22.68;62.47
16505;HTU21D;8365;51.030;4.696;2023-08-07T11:09:19;23.73;60.94
16505;HTU21D;8365;51.030;4.696;2023-08-07T11:11:49;24.44;59.52
16505;HTU21D;8365;51.030;4.696;2023-08-07T11:14:20;23.53;60.62
16505;HTU21D;8365;51.030;4.696;2023-08-07T11:16:52;23.36;60.31
16505;HTU21D;8365;51.030;4.696;2023-08-07T11:19:22;23.31;58.85
16505;HTU21D;8365;51.030;4.696;2023-08-07T11:21:53;23.09;61.83
16505;HTU21D;8365;51.030;4.696;2023-08-07T11:24:27;23.08;62.60
16505;HTU21D;8365;51.030;4.696;2023-08-07T11:26:57;23.15;61.87
16505;HTU21D;8365;51.030;4.696;2023-08-07T11:29:29;22.62;63.39
16505;HTU21D;8365;51.030;4.696;2023-08-07T11:32:02;22.19;63.86
16505;HTU21D;8365;51.030;4.696;2023-08-07T11:34:32;21.52;66.54
16505;HTU21D;8365;51.030;4.696;2023-08-07T11:37:03;23.26;63.31
16505;HTU21D;8365;51.030;4.696;2023-08-07T11:39:41;23.80;61.67
16505;HTU21D;8365;51.030;4.696;2023-08-07T11:42:13;23.98;62.05
16505;HTU21D;8365;51.030;4.696;2023-08-07T11:44:45;24.29;59.57
16505;HTU21D;8365;51.030;4.696;2023-08-07T11:47:15;24.82;58.12
16505;HTU21D;8365;51.030;4.696;2023-08-07T11:49:47;25.36;56.39
16505;HTU21D;8365;51.030;4.696;2023-08-07T11:52:18;24.56;55.56
16505;HTU21D;8365;51.030;4.696;2023-08-07T11:54:52;24.68;57.05
16505;HTU21D;8365;51.030;4.696;2023-08-07T11:57:23;23.91;58.68
16505;HTU21D;8365;51.030;4.696;2023-08-07T11:59:55;24.54;56.84
16505;HTU21D;8365;51.030;4.696;2023-08-07T12:02:30;24.62;55.58
16505;HTU21D;8365;51.030;4.696;2023-08-07T12:05:00;23.40;58.41
16505;HTU21D;8365;51.030;4.696;2023-08-07T12:07:31;23.22;60.92
16505;HTU21D;8365;51.030;4.696;2023-08-07T12:10:06;22.20;63.63
16505;HTU21D;8365;51.030;4.696;2023-08-07T12:12:37;22.52;62.76
16505;HTU21D;8365;51.030;4.696;2023-08-07T12:15:08;23.57;60.99
16505;HTU21D;8365;51.030;4.696;2023-08-07T12:17:39;24.64;59.20
16505;HTU21D;8365;51.030;4.696;2023-08-07T12:20:10;24.27;59.83
16505;HTU21D;8365;51.030;4.696;2023-08-07T12:22:40;24.56;57.06
16505;HTU21D;8365;51.030;4.696;2023-08-07T12:25:11;23.17;59.96
16505;HTU21D;8365;51.030;4.696;2023-08-07T12:27:41;22.14;61.95
16505;HTU21D;8365;51.030;4.696;2023-08-07T12:30:12;22.31;62.34
16505;HTU21D;8365;51.030;4.696;2023-08-07T12:32:43;22.09;64.27
16505;HTU21D;8365;51.030;4.696;2023-08-07T12:35:13;21.64;66.70
16505;HTU21D;8365;51.030;4.696;2023-08-07T12:37:44;22.29;64.49
16505;HTU21D;8365;51.030;4.696;2023-08-07T12:40:14;23.29;63.78
16505;HTU21D;8365;51.030;4.696;2023-08-07T12:42:49;23.52;59.34
16505;HTU21D;8365;51.030;4.696;2023-08-07T12:45:23;24.20;59.86
16505;HTU21D;8365;51.030;4.696;2023-08-07T12:47:54;24.50;58.30
16505;HTU21D;8365;51.030;4.696;2023-08-07T12:50:24;24.65;57.14
16505;HTU21D;8365;51.030;4.696;2023-08-07T12:52:55;24.88;59.71
16505;HTU21D;8365;51.030;4.696;2023-08-07T12:55:26;24.99;56.74
16505;HTU21D;8365;51.030;4.696;2023-08-07T12:57:58;24.55;59.03
16505;HTU21D;8365;51.030;4.696;2023-08-07T13:00:28;24.63;57.93
16505;HTU21D;8365;51.030;4.696;2023-08-07T13:02:59;24.41;57.67
16505;HTU21D;8365;51.030;4.696;2023-08-07T13:05:31;24.51;58.83
16505;HTU21D;8365;51.030;4.696;2023-08-07T13:08:02;25.23;59.22
16505;HTU21D;8365;51.030;4.696;2023-08-07T13:10:33;25.49;55.90
16505;HTU21D;8365;51.030;4.696;2023-08-07T13:13:03;25.96;57.26
16505;HTU21D;8365;51.030;4.696;2023-08-07T13:15:35;26.02;54.72
16505;HTU21D;8365;51.030;4.696;2023-08-07T13:18:05;25.65;54.03
16505;HTU21D;8365;51.030;4.696;2023-08-07T13:20:36;24.54;58.00
16505;HTU21D;8365;51.030;4.696;2023-08-07T13:23:06;23.58;61.41
16505;HTU21D;8365;51.030;4.696;2023-08-07T13:25:37;23.77;61.73
16505;HTU21D;8365;51.030;4.696;2023-08-07T13:28:08;23.47;62.66
16505;HTU21D;8365;51.030;4.696;2023-08-07T13:30:38;23.28;64.08
16505;HTU21D;8365;51.030;4.696;2023-08-07T13:33:11;23.23;66.16
16505;HTU21D;8365;51.030;4.696;2023-08-07T13:35:44;23.12;65.74
16505;HTU21D;8365;51.030;4.696;2023-08-07T13:38:15;23.11;66.11
16505;HTU21D;8365;51.030;4.696;2023-08-07T13:40:48;23.18;65.48
16505;HTU21D;8365;51.030;4.696;2023-08-07T13:43:19;23.32;65.30
16505;HTU21D;8365;51.030;4.696;2023-08-07T13:45:50;24.65;63.56
16505;HTU21D;8365;51.030;4.696;2023-08-07T13:48:21;24.54;59.90
16505;HTU21D;8365;51.030;4.696;2023-08-07T13:50:52;23.47;60.91
16505;HTU21D;8365;51.030;4.696;2023-08-07T13:53:23;23.02;62.68
16505;HTU21D;8365;51.030;4.696;2023-08-07T13:55:56;22.97;65.21
16505;HTU21D;8365;51.030;4.696;2023-08-07T13:58:27;23.69;63.66
16505;HTU21D;8365;51.030;4.696;2023-08-07T14:00:58;24.71;59.76
16505;HTU21D;8365;51.030;4.696;2023-08-07T14:03:31;25.65;58.25
16505;HTU21D;8365;51.030;4.696;2023-08-07T14:06:01;26.18;55.83
16505;HTU21D;8365;51.030;4.696;2023-08-07T14:08:32;26.18;51.22
16505;HTU21D;8365;51.030;4.696;2023-08-07T14:11:04;25.42;52.47
16505;HTU21D;8365;51.030;4.696;2023-08-07T14:13:36;25.31;54.37
16505;HTU21D;8365;51.030;4.696;2023-08-07T14:16:07;23.52;60.22
16505;HTU21D;8365;51.030;4.696;2023-08-07T14:18:37;23.27;60.40
16505;HTU21D;8365;51.030;4.696;2023-08-07T14:21:08;23.29;60.54
16505;HTU21D;8365;51.030;4.696;2023-08-07T14:23:39;23.27;62.05
16505;HTU21D;8365;51.030;4.696;2023-08-07T14:26:09;24.57;59.34
16505;HTU21D;8365;51.030;4.696;2023-08-07T14:28:40;24.60;57.93
16505;HTU21D;8365;51.030;4.696;2023-08-07T14:31:11;25.35;57.26
16505;HTU21D;8365;51.030;4.696;2023-08-07T14:33:41;24.46;57.39
16505;HTU21D;8365;51.030;4.696;2023-08-07T14:36:12;24.28;59.26
16505;HTU21D;8365;51.030;4.696;2023-08-07T14:38:42;24.05;59.71
16505;HTU21D;8365;51.030;4.696;2023-08-07T14:41:15;23.20;61.24
16505;HTU21D;8365;51.030;4.696;2023-08-07T14:43:48;24.42;60.66
16505;HTU21D;8365;51.030;4.696;2023-08-07T14:46:20;24.89;57.77
16505;HTU21D;8365;51.030;4.696;2023-08-07T14:48:50;24.64;58.37
16505;HTU21D;8365;51.030;4.696;2023-08-07T14:51:21;23.39;60.68
16505;HTU21D;8365;51.030;4.696;2023-08-07T14:53:52;22.78;62.75
16505;HTU21D;8365;51.030;4.696;2023-08-07T14:56:22;22.54;63.08
16505;HTU21D;8365;51.030;4.696;2023-08-07T14:58:53;22.98;63.08
16505;HTU21D;8365;51.030;4.696;2023-08-07T15:01:23;23.34;61.72
16505;HTU21D;8365;51.030;4.696;2023-08-07T15:03:54;22.98;60.92
16505;HTU21D;8365;51.030;4.696;2023-08-07T15:06:24;23.37;62.46
16505;HTU21D;8365;51.030;4.696;2023-08-07T15:08:55;22.82;62.44
16505;HTU21D;8365;51.030;4.696;2023-08-07T15:11:25;23.01;63.45
16505;HTU21D;8365;51.030;4.696;2023-08-07T15:13:55;22.86;63.17
16505;HTU21D;8365;51.030;4.696;2023-08-07T15:16:26;22.56;64.39
16505;HTU21D;8365;51.030;4.696;2023-08-07T15:19:01;22.78;62.93
16505;HTU21D;8365;51.030;4.696;2023-08-07T15:21:32;22.69;62.92
16505;HTU21D;8365;51.030;4.696;2023-08-07T15:24:03;23.02;62.89
16505;HTU21D;8365;51.030;4.696;2023-08-07T15:26:36;22.93;61.67
16505;HTU21D;8365;51.030;4.696;2023-08-07T15:29:06;23.00;62.98
16505;HTU21D;8365;51.030;4.696;2023-08-07T15:31:37;23.51;62.32
16505;HTU21D;8365;51.030;4.696;2023-08-07T15:34:07;24.27;59.06
16505;HTU21D;8365;51.030;4.696;2023-08-07T15:36:38;24.41;59.38
16505;HTU21D;8365;51.030;4.696;2023-08-07T15:39:10;24.55;58.68
16505;HTU21D;8365;51.030;4.696;2023-08-07T15:41:42;24.13;59.18
16505;HTU21D;8365;51.030;4.696;2023-08-07T15:44:12;22.91;61.18
16505;HTU21D;8365;51.030;4.696;2023-08-07T15:46:43;22.90;62.60
16505;HTU21D;8365;51.030;4.696;2023-08-07T15:49:13;22.85;64.30
16505;HTU21D;8365;51.030;4.696;2023-08-07T15:51:44;22.67;63.63
16505;HTU21D;8365;51.030;4.696;2023-08-07T15:54:14;22.50;65.67
16505;HTU21D;8365;51.030;4.696;2023-08-07T15:56:45;22.34;65.49
16505;HTU21D;8365;51.030;4.696;2023-08-07T15:59:15;22.02;65.46
16505;HTU21D;8365;51.030;4.696;2023-08-07T16:01:46;22.54;64.98
16505;HTU21D;8365;51.030;4.696;2023-08-07T16:04:16;23.18;62.24
16505;HTU21D;8365;51.030;4.696;2023-08-07T16:06:47;23.10;63.44
16505;HTU21D;8365;51.030;4.696;2023-08-07T16:09:17;22.69;62.37
16505;HTU21D;8365;51.030;4.696;2023-08-07T16:11:47;22.53;61.94
16505;HTU21D;8365;51.030;4.696;2023-08-07T16:14:18;22.54;63.43
16505;HTU21D;8365;51.030;4.696;2023-08-07T16:16:50;22.07;62.53
16505;HTU21D;8365;51.030;4.696;2023-08-07T16:19:21;22.96;63.56
16505;HTU21D;8365;51.030;4.696;2023-08-07T16:21:51;23.05;62.47
16505;HTU21D;8365;51.030;4.696;2023-08-07T16:24:22;22.70;61.98
16505;HTU21D;8365;51.030;4.696;2023-08-07T16:26:52;22.48;62.99
16505;HTU21D;8365;51.030;4.696;2023-08-07T16:29:23;22.72;63.22
16505;HTU21D;8365;51.030;4.696;2023-08-07T16:31:53;23.18;61.17
16505;HTU21D;8365;51.030;4.696;2023-08-07T16:34:24;24.23;59.38
16505;HTU21D;8365;51.030;4.696;2023-08-07T16:36:54;24.14;59.32
16505;HTU21D;8365;51.030;4.696;2023-08-07T16:39:25;23.50;60.73
16505;HTU21D;8365;51.030;4.696;2023-08-07T16:41:55;23.59;59.90
16505;HTU21D;8365;51.030;4.696;2023-08-07T16:44:26;23.87;60.35
16505;HTU21D;8365;51.030;4.696;2023-08-07T16:46:56;24.40;58.74
16505;HTU21D;8365;51.030;4.696;2023-08-07T16:49:27;23.17;62.27
16505;HTU21D;8365;51.030;4.696;2023-08-07T16:51:57;22.73;62.11